Terminal Aerodrome Forecast
Issued by NWS

Current Version | Previous Version | Text Only | Print | Product List | Glossary On
Versions: 1 2 3 4 5 6 7 8 9 10 11 12 13
000
FTUS43 KJKL 302339
TAFSJS
TAF
KSJS 302339Z 0100/0124 17007G17KT P6SM SCT050
     FM011000 20010KT P6SM VCTS SCT035CB OVC050
     FM011300 22009KT P6SM SHRA VCTS OVC035CB
     FM011500 23009KT P6SM VCSH BKN040
     FM011800 20016G30KT P6SM SCT040=

USA.gov is the U.S. government's official web portal to all federal, state and local government web resources and services.